Terminal Aerodrome Forecast
Issued by NWS

Home | Current Version | Previous Version | Graphics & Text | Print | Product List | Glossary On
Versions: 1 2 3 4 5 6 7 8 9 10 11 12 13 14 15 16 17 18 19 20 21 22
578
FTUS42 KMHX 212326
TAFOAJ
TAF
KOAJ 212326Z 2200/2224 03005KT P6SM VCSH BKN015
     FM220300 01004KT P6SM OVC007
     FM220800 01004KT 4SM BR OVC003
     FM221300 03006KT P6SM BKN009 OVC020
     FM221500 03006KT P6SM BKN025
     FM221700 03006KT P6SM BKN035
      AMD LTD TO CLD VIS AND WIND=

USA.gov is the U.S. government's official web portal to all federal, state and local government web resources and services.